Time,TemperatureF,DewpointF,PressureIn,WindDirection,WindDirectionDegrees,WindSpeedMPH,WindSpeedGustMPH,Humidity,HourlyPrecipIn,Conditions,Clouds,dailyrainin,SolarRadiationWatts/m^2,SoftwareType,DateUTC
2013-05-02 00:08:00,65.8,53.0,30.10,South,189,0.0,0.0,64,0.00,,,0.02,0,weatherlink.com 1.10,2013-05-02 04:08:00,
2013-05-02 00:23:00,65.6,54.0,30.10,South,189,0.0,0.0,66,0.00,,,0.02,0,weatherlink.com 1.10,2013-05-02 04:23:00,
2013-05-02 00:38:00,65.7,54.0,30.10,South,189,0.0,0.0,66,0.00,,,0.02,0,weatherlink.com 1.10,2013-05-02 04:38:00,
2013-05-02 00:53:00,65.7,54.0,30.10,South,189,0.0,0.0,66,0.00,,,0.02,0,weatherlink.com 1.10,2013-05-02 04:53:00,
2013-05-02 01:08:00,65.4,54.0,30.10,South,189,0.0,0.0,66,0.00,,,0.02,0,weatherlink.com 1.10,2013-05-02 05:08:00,
2013-05-02 01:23:00,65.0,53.0,30.09,South,189,0.0,0.0,66,0.00,,,0.02,0,weatherlink.com 1.10,2013-05-02 05:23:00,
2013-05-02 01:38:00,64.2,53.0,30.09,South,189,0.0,0.0,67,0.00,,,0.02,0,weatherlink.com 1.10,2013-05-02 05:38:00,
2013-05-02 01:53:00,63.6,53.0,30.09,South,189,0.0,0.0,68,0.00,,,0.02,0,weatherlink.com 1.10,2013-05-02 05:53:00,
2013-05-02 02:08:00,63.2,55.0,30.09,South,189,0.0,0.0,74,0.00,,,0.02,0,weatherlink.com 1.10,2013-05-02 06:08:00,
2013-05-02 02:23:00,62.1,53.0,30.08,South,189,0.0,0.0,73,0.00,,,0.02,0,weatherlink.com 1.10,2013-05-02 06:23:00,
2013-05-02 02:38:00,61.8,53.0,30.08,South,189,0.0,0.0,74,0.00,,,0.02,0,weatherlink.com 1.10,2013-05-02 06:38:00,
2013-05-02 02:53:00,61.4,53.0,30.08,South,189,0.0,0.0,75,0.00,,,0.02,0,weatherlink.com 1.10,2013-05-02 06:53:00,
2013-05-02 03:08:00,61.1,54.0,30.08,South,189,0.0,0.0,76,0.00,,,0.02,0,weatherlink.com 1.10,2013-05-02 07:08:00,
2013-05-02 03:23:00,61.3,53.0,30.08,South,189,0.0,0.0,75,0.00,,,0.02,0,weatherlink.com 1.10,2013-05-02 07:23:00,
2013-05-02 03:38:00,61.5,54.0,30.08,South,189,0.0,0.0,76,0.00,,,0.02,0,weatherlink.com 1.10,2013-05-02 07:38:00,
2013-05-02 03:53:00,61.4,54.0,30.08,South,189,0.0,1.0,76,0.00,,,0.02,0,weatherlink.com 1.10,2013-05-02 07:53:00,
2013-05-02 04:08:00,61.4,54.0,30.08,South,189,0.0,0.0,77,0.00,,,0.00,0,weatherlink.com 1.10,2013-05-02 08:08:00,
2013-05-02 04:23:00,61.3,54.0,30.08,ENE,65,0.0,2.0,78,0.00,,,0.00,0,weatherlink.com 1.10,2013-05-02 08:23:00,
2013-05-02 04:38:00,61.8,55.0,30.08,NNW,330,0.0,1.0,77,0.00,,,0.00,0,weatherlink.com 1.10,2013-05-02 08:38:00,
2013-05-02 04:53:00,61.7,55.0,30.08,NE,34,0.0,4.0,78,0.00,,,0.00,0,weatherlink.com 1.10,2013-05-02 08:53:00,
2013-05-02 05:09:00,62.2,55.0,30.08,SSE,165,0.0,9.0,77,0.00,,,0.00,0,weatherlink.com 1.10,2013-05-02 09:09:00,
2013-05-02 05:24:00,62.5,55.0,30.08,NW,317,0.0,1.0,76,0.00,,,0.00,0,weatherlink.com 1.10,2013-05-02 09:24:00,
2013-05-02 05:39:00,62.3,55.0,30.08,SSE,157,0.0,4.0,77,0.00,,,0.00,0,weatherlink.com 1.10,2013-05-02 09:39:00,
2013-05-02 05:54:00,62.2,55.0,30.08,South,173,0.0,0.0,76,0.00,,,0.00,0,weatherlink.com 1.10,2013-05-02 09:54:00,
2013-05-02 06:09:00,61.8,55.0,30.09,WSW,242,0.0,2.0,77,0.00,,,0.00,0,weatherlink.com 1.10,2013-05-02 10:09:00,
2013-05-02 06:24:00,61.3,55.0,30.09,South,170,0.0,1.0,79,0.00,,,0.00,0,weatherlink.com 1.10,2013-05-02 10:24:00,
2013-05-02 06:39:00,61.4,55.0,30.09,SSE,155,0.0,6.0,78,0.00,,,0.00,0,weatherlink.com 1.10,2013-05-02 10:39:00,
2013-05-02 06:54:00,61.7,54.0,30.09,SE,127,0.0,4.0,77,0.00,,,0.00,7,weatherlink.com 1.10,2013-05-02 10:54:00,
2013-05-02 07:09:00,62.2,55.0,30.10,SSE,158,0.0,5.0,76,0.00,,,0.00,23,weatherlink.com 1.10,2013-05-02 11:09:00,
2013-05-02 07:24:00,62.5,54.0,30.10,SE,133,0.0,5.0,74,0.00,,,0.00,32,weatherlink.com 1.10,2013-05-02 11:24:00,
2013-05-02 07:39:00,62.3,55.0,30.11,SE,128,0.0,1.0,77,0.00,,,0.00,62,weatherlink.com 1.10,2013-05-02 11:39:00,
2013-05-02 07:54:00,62.0,55.0,30.11,ENE,63,0.0,2.0,79,0.00,,,0.00,88,weatherlink.com 1.10,2013-05-02 11:54:00,
2013-05-02 08:09:00,62.6,56.0,30.12,NE,56,0.0,2.0,79,0.00,,,0.00,111,weatherlink.com 1.10,2013-05-02 12:09:00,
2013-05-02 08:24:00,63.8,56.0,30.12,SSE,153,6.0,10.0,76,0.00,,,0.00,134,weatherlink.com 1.10,2013-05-02 12:24:00,
2013-05-02 08:39:00,64.6,56.0,30.13,East,84,1.0,6.0,73,0.00,,,0.00,125,weatherlink.com 1.10,2013-05-02 12:39:00,
2013-05-02 08:54:00,65.0,56.0,30.13,SE,124,1.0,4.0,73,0.00,,,0.00,236,weatherlink.com 1.10,2013-05-02 12:54:00,
2013-05-02 09:09:00,66.1,55.0,30.13,SSE,152,1.0,11.0,68,0.00,,,0.00,206,weatherlink.com 1.10,2013-05-02 13:09:00,
2013-05-02 09:24:00,67.3,55.0,30.13,South,190,4.0,9.0,65,0.00,,,0.00,459,weatherlink.com 1.10,2013-05-02 13:24:00,
2013-05-02 09:39:00,68.1,55.0,30.14,SSW,198,5.0,9.0,63,0.00,,,0.00,411,weatherlink.com 1.10,2013-05-02 13:39:00,
2013-05-02 09:54:00,68.9,54.0,30.13,South,188,6.0,9.0,60,0.00,,,0.00,540,weatherlink.com 1.10,2013-05-02 13:54:00,
2013-05-02 10:09:00,69.8,56.0,30.13,ESE,107,1.0,8.0,61,0.00,,,0.00,599,weatherlink.com 1.10,2013-05-02 14:09:00,
2013-05-02 10:24:00,71.1,55.0,30.13,SSE,160,0.0,14.0,58,0.00,,,0.00,647,weatherlink.com 1.10,2013-05-02 14:24:00,
2013-05-02 10:55:00,72.2,56.0,30.13,North,355,3.0,6.0,58,0.00,,,0.00,617,weatherlink.com 1.10,2013-05-02 14:55:00,
2013-05-02 11:10:00,73.0,57.0,30.12,NNE,14,0.0,7.0,58,0.00,,,0.00,738,weatherlink.com 1.10,2013-05-02 15:10:00,
2013-05-02 11:25:00,73.8,58.0,30.11,SSW,205,2.0,5.0,58,0.00,,,0.00,654,weatherlink.com 1.10,2013-05-02 15:25:00,
2013-05-02 11:40:00,74.5,58.0,30.11,North,355,1.0,7.0,57,0.00,,,0.00,782,weatherlink.com 1.10,2013-05-02 15:40:00,
2013-05-02 11:55:00,74.4,59.0,30.11,NNE,15,2.0,4.0,58,0.00,,,0.00,775,weatherlink.com 1.10,2013-05-02 15:55:00,
2013-05-02 12:10:00,75.6,60.0,30.11,East,101,2.0,4.0,58,0.00,,,0.00,912,weatherlink.com 1.10,2013-05-02 16:10:00,
2013-05-02 12:25:00,76.0,60.0,30.11,NE,35,4.0,6.0,57,0.00,,,0.00,884,weatherlink.com 1.10,2013-05-02 16:25:00,
2013-05-02 12:40:00,76.1,59.0,30.11,SE,143,1.0,8.0,55,0.00,,,0.00,974,weatherlink.com 1.10,2013-05-02 16:40:00,
2013-05-02 12:55:00,76.9,58.0,30.10,SSE,157,1.0,4.0,53,0.00,,,0.00,1005,weatherlink.com 1.10,2013-05-02 16:55:00,
2013-05-02 13:10:00,77.5,59.0,30.10,East,84,2.0,5.0,54,0.00,,,0.00,1007,weatherlink.com 1.10,2013-05-02 17:10:00,
2013-05-02 13:25:00,77.7,60.0,30.09,SSW,210,4.0,5.0,54,0.01,,,0.01,1016,weatherlink.com 1.10,2013-05-02 17:25:00,
2013-05-02 13:40:00,78.2,59.0,30.09,East,84,0.0,7.0,52,0.01,,,0.01,947,weatherlink.com 1.10,2013-05-02 17:40:00,
2013-05-02 13:55:00,78.7,58.0,30.09,South,190,2.0,7.0,49,0.01,,,0.01,1048,weatherlink.com 1.10,2013-05-02 17:55:00,
2013-05-02 14:10:00,78.4,58.0,30.08,NNE,26,4.0,7.0,50,0.01,,,0.01,995,weatherlink.com 1.10,2013-05-02 18:10:00,
2013-05-02 14:25:00,78.9,56.0,30.08,ENE,59,6.0,6.0,46,0.00,,,0.01,1021,weatherlink.com 1.10,2013-05-02 18:25:00,
2013-05-02 14:40:00,78.2,59.0,30.07,NE,53,1.0,4.0,51,0.00,,,0.01,874,weatherlink.com 1.10,2013-05-02 18:40:00,
2013-05-02 14:55:00,78.9,60.0,30.07,North,360,0.0,8.0,52,0.00,,,0.01,793,weatherlink.com 1.10,2013-05-02 18:55:00,
2013-05-02 15:10:00,78.8,57.0,30.06,South,175,9.0,12.0,47,0.00,,,0.01,914,weatherlink.com 1.10,2013-05-02 19:10:00,
2013-05-02 15:25:00,79.0,57.0,30.06,NW,326,2.0,7.0,47,0.00,,,0.01,984,weatherlink.com 1.10,2013-05-02 19:25:00,
2013-05-02 15:40:00,79.3,58.0,30.06,SSE,148,4.0,7.0,49,0.00,,,0.01,849,weatherlink.com 1.10,2013-05-02 19:40:00,
2013-05-02 15:55:00,79.3,55.0,30.05,ESE,119,2.0,6.0,44,0.00,,,0.01,749,weatherlink.com 1.10,2013-05-02 19:55:00,
2013-05-02 16:10:00,79.0,56.0,30.04,SW,231,2.0,4.0,46,0.00,,,0.01,643,weatherlink.com 1.10,2013-05-02 20:10:00,
2013-05-02 16:25:00,79.1,57.0,30.03,NNW,345,1.0,2.0,47,0.00,,,0.01,563,weatherlink.com 1.10,2013-05-02 20:25:00,
2013-05-02 16:40:00,79.3,57.0,30.03,SE,146,3.0,5.0,47,0.00,,,0.01,615,weatherlink.com 1.10,2013-05-02 20:40:00,
2013-05-02 16:55:00,79.5,56.0,30.02,SSE,166,4.0,8.0,44,0.00,,,0.01,527,weatherlink.com 1.10,2013-05-02 20:55:00,
2013-05-02 17:25:00,76.5,57.0,30.02,SE,135,2.0,6.0,51,0.00,,,0.01,248,weatherlink.com 1.10,2013-05-02 21:25:00,
2013-05-02 17:40:00,75.5,57.0,30.02,SSE,164,0.0,9.0,53,0.00,,,0.01,218,weatherlink.com 1.10,2013-05-02 21:40:00,
2013-05-02 17:56:00,75.1,57.0,30.02,North,355,1.0,7.0,54,0.00,,,0.01,165,weatherlink.com 1.10,2013-05-02 21:56:00,
2013-05-02 18:11:00,75.0,58.0,30.01,South,180,2.0,5.0,55,0.00,,,0.01,216,weatherlink.com 1.10,2013-05-02 22:11:00,
2013-05-02 18:26:00,75.0,59.0,30.01,South,188,1.0,5.0,57,0.00,,,0.01,181,weatherlink.com 1.10,2013-05-02 22:26:00,
2013-05-02 18:41:00,74.5,59.0,30.01,SSW,196,1.0,10.0,59,0.00,,,0.01,169,weatherlink.com 1.10,2013-05-02 22:41:00,
2013-05-02 18:56:00,73.8,58.0,30.01,South,179,1.0,6.0,58,0.00,,,0.01,134,weatherlink.com 1.10,2013-05-02 22:56:00,
2013-05-02 19:11:00,73.1,58.0,30.01,SSW,197,0.0,8.0,60,0.00,,,0.01,202,weatherlink.com 1.10,2013-05-02 23:11:00,
2013-05-02 19:26:00,72.9,59.0,30.02,NNE,13,0.0,8.0,61,0.00,,,0.01,81,weatherlink.com 1.10,2013-05-02 23:26:00,
2013-05-02 19:41:00,71.9,58.0,30.02,SSE,163,0.0,6.0,61,0.00,,,0.01,35,weatherlink.com 1.10,2013-05-02 23:41:00,
2013-05-02 19:56:00,71.4,58.0,30.03,SSW,198,0.0,2.0,62,0.00,,,0.01,21,weatherlink.com 1.10,2013-05-02 23:56:00,
2013-05-02 20:11:00,71.0,57.0,30.03,SE,126,0.0,5.0,62,0.00,,,0.01,21,weatherlink.com 1.10,2013-05-03 00:11:00,
2013-05-02 20:26:00,70.4,58.0,30.02,East,98,0.0,2.0,64,0.00,,,0.01,7,weatherlink.com 1.10,2013-05-03 00:26:00,
2013-05-02 20:41:00,69.7,57.0,30.02,ESE,117,1.0,4.0,65,0.00,,,0.01,0,weatherlink.com 1.10,2013-05-03 00:41:00,
2013-05-02 20:56:00,68.8,57.0,30.02,ESE,117,0.0,1.0,66,0.00,,,0.01,0,weatherlink.com 1.10,2013-05-03 00:56:00,
2013-05-02 21:11:00,67.9,56.0,30.03,ESE,117,0.0,1.0,67,0.00,,,0.01,0,weatherlink.com 1.10,2013-05-03 01:11:00,
2013-05-02 21:26:00,67.3,57.0,30.03,ESE,117,0.0,1.0,69,0.00,,,0.01,0,weatherlink.com 1.10,2013-05-03 01:26:00,
2013-05-02 21:41:00,67.0,57.0,30.03,ESE,117,0.0,2.0,70,0.00,,,0.01,0,weatherlink.com 1.10,2013-05-03 01:41:00,
2013-05-02 21:56:00,67.2,57.0,30.04,NNW,336,1.0,5.0,70,0.00,,,0.01,0,weatherlink.com 1.10,2013-05-03 01:56:00,
2013-05-02 22:11:00,67.6,57.0,30.04,South,175,0.0,2.0,69,0.00,,,0.01,0,weatherlink.com 1.10,2013-05-03 02:11:00,
2013-05-02 22:26:00,67.6,57.0,30.04,South,182,1.0,6.0,68,0.00,,,0.01,0,weatherlink.com 1.10,2013-05-03 02:26:00,
2013-05-02 22:41:00,67.0,56.0,30.03,SSW,205,2.0,2.0,69,0.00,,,0.01,0,weatherlink.com 1.10,2013-05-03 02:41:00,
2013-05-02 22:56:00,66.4,56.0,30.03,SSW,198,0.0,2.0,69,0.00,,,0.01,0,weatherlink.com 1.10,2013-05-03 02:56:00,
2013-05-02 23:11:00,65.7,56.0,30.03,SSW,198,0.0,2.0,70,0.00,,,0.01,0,weatherlink.com 1.10,2013-05-03 03:11:00,
2013-05-02 23:26:00,65.1,55.0,30.03,SSW,198,0.0,2.0,70,0.00,,,0.01,0,weatherlink.com 1.10,2013-05-03 03:26:00,
2013-05-02 23:41:00,64.5,55.0,30.03,SE,145,0.0,2.0,71,0.00,,,0.01,0,weatherlink.com 1.10,2013-05-03 03:41:00,
2013-05-02 23:56:00,64.4,54.0,30.02,South,186,0.0,1.0,70,0.00,,,0.01,0,weatherlink.com 1.10,2013-05-03 03:56:00,